sensor_id;sensor_type;location;lat;lon;timestamp;temperature;humidity
4896;DHT22;2463;49.948;8.472;2023-06-24T00:00:02;17.30;99.90
4896;DHT22;2463;49.948;8.472;2023-06-24T00:02:34;17.40;99.90
4896;DHT22;2463;49.948;8.472;2023-06-24T00:05:03;17.50;99.90
4896;DHT22;2463;49.948;8.472;2023-06-24T00:07:30;17.50;99.90
4896;DHT22;2463;49.948;8.472;2023-06-24T00:09:57;17.50;99.90
4896;DHT22;2463;49.948;8.472;2023-06-24T00:12:24;17.60;99.90
4896;DHT22;2463;49.948;8.472;2023-06-24T00:14:50;17.60;99.90
4896;DHT22;2463;49.948;8.472;2023-06-24T00:17:17;17.60;99.90
4896;DHT22;2463;49.948;8.472;2023-06-24T00:19:44;17.60;99.90
4896;DHT22;2463;49.948;8.472;2023-06-24T00:22:11;17.50;99.90
4896;DHT22;2463;49.948;8.472;2023-06-24T00:24:41;17.50;99.90
4896;DHT22;2463;49.948;8.472;2023-06-24T00:27:09;17.40;99.90
4896;DHT22;2463;49.948;8.472;2023-06-24T00:29:36;17.40;99.90
4896;DHT22;2463;49.948;8.472;2023-06-24T00:32:03;17.30;99.90
4896;DHT22;2463;49.948;8.472;2023-06-24T00:34:30;17.20;99.90
4896;DHT22;2463;49.948;8.472;2023-06-24T00:36:56;17.30;99.90
4896;DHT22;2463;49.948;8.472;2023-06-24T00:39:23;17.20;99.90
4896;DHT22;2463;49.948;8.472;2023-06-24T00:41:50;17.20;99.90
4896;DHT22;2463;49.948;8.472;2023-06-24T00:44:17;17.20;99.90
4896;DHT22;2463;49.948;8.472;2023-06-24T00:46:44;17.20;99.90
4896;DHT22;2463;49.948;8.472;2023-06-24T00:49:10;17.10;99.90
4896;DHT22;2463;49.948;8.472;2023-06-24T00:51:41;17.00;99.90
4896;DHT22;2463;49.948;8.472;2023-06-24T00:54:17;16.90;99.90
4896;DHT22;2463;49.948;8.472;2023-06-24T00:56:44;16.80;99.90
4896;DHT22;2463;49.948;8.472;2023-06-24T00:59:16;16.80;99.90
4896;DHT22;2463;49.948;8.472;2023-06-24T01:01:45;16.70;99.90
4896;DHT22;2463;49.948;8.472;2023-06-24T01:04:13;16.70;99.90
4896;DHT22;2463;49.948;8.472;2023-06-24T01:06:40;16.60;99.90
4896;DHT22;2463;49.948;8.472;2023-06-24T01:09:10;16.60;99.90
4896;DHT22;2463;49.948;8.472;2023-06-24T01:11:39;16.60;99.90
4896;DHT22;2463;49.948;8.472;2023-06-24T01:14:06;16.60;99.90
4896;DHT22;2463;49.948;8.472;2023-06-24T01:16:49;16.50;99.90
4896;DHT22;2463;49.948;8.472;2023-06-24T01:28:04;16.60;99.90
4896;DHT22;2463;49.948;8.472;2023-06-24T01:30:49;16.40;99.90
4896;DHT22;2463;49.948;8.472;2023-06-24T01:33:45;16.40;99.90
4896;DHT22;2463;49.948;8.472;2023-06-24T01:36:16;16.30;99.90
4896;DHT22;2463;49.948;8.472;2023-06-24T01:38:58;16.30;99.90
4896;DHT22;2463;49.948;8.472;2023-06-24T01:41:31;16.20;99.90
4896;DHT22;2463;49.948;8.472;2023-06-24T01:43:59;16.30;99.90
4896;DHT22;2463;49.948;8.472;2023-06-24T01:46:29;16.20;99.90
4896;DHT22;2463;49.948;8.472;2023-06-24T01:49:01;16.20;99.90
4896;DHT22;2463;49.948;8.472;2023-06-24T01:51:31;16.10;99.90
4896;DHT22;2463;49.948;8.472;2023-06-24T01:54:02;16.00;99.90
4896;DHT22;2463;49.948;8.472;2023-06-24T01:56:29;16.00;99.90
4896;DHT22;2463;49.948;8.472;2023-06-24T01:58:59;16.00;99.90
4896;DHT22;2463;49.948;8.472;2023-06-24T02:01:27;16.10;99.90
4896;DHT22;2463;49.948;8.472;2023-06-24T02:03:56;16.10;99.90
4896;DHT22;2463;49.948;8.472;2023-06-24T02:06:24;16.00;99.90
4896;DHT22;2463;49.948;8.472;2023-06-24T02:08:53;16.00;99.90
4896;DHT22;2463;49.948;8.472;2023-06-24T02:11:22;15.90;99.90
4896;DHT22;2463;49.948;8.472;2023-06-24T02:13:51;15.90;99.90
4896;DHT22;2463;49.948;8.472;2023-06-24T02:16:20;15.80;99.90
4896;DHT22;2463;49.948;8.472;2023-06-24T02:18:48;15.70;99.90
4896;DHT22;2463;49.948;8.472;2023-06-24T02:21:17;15.70;99.90
4896;DHT22;2463;49.948;8.472;2023-06-24T02:23:47;15.60;99.90
4896;DHT22;2463;49.948;8.472;2023-06-24T02:26:15;15.60;99.90
4896;DHT22;2463;49.948;8.472;2023-06-24T02:28:44;15.60;99.90
4896;DHT22;2463;49.948;8.472;2023-06-24T02:31:13;15.50;99.90
4896;DHT22;2463;49.948;8.472;2023-06-24T02:33:41;15.50;99.90
4896;DHT22;2463;49.948;8.472;2023-06-24T02:36:08;15.40;99.90
4896;DHT22;2463;49.948;8.472;2023-06-24T02:38:34;15.40;99.90
4896;DHT22;2463;49.948;8.472;2023-06-24T02:41:01;15.40;99.90
4896;DHT22;2463;49.948;8.472;2023-06-24T02:43:32;15.40;99.90
4896;DHT22;2463;49.948;8.472;2023-06-24T02:46:01;15.40;99.90
4896;DHT22;2463;49.948;8.472;2023-06-24T02:48:30;15.30;99.90
4896;DHT22;2463;49.948;8.472;2023-06-24T02:50:59;15.20;99.90
4896;DHT22;2463;49.948;8.472;2023-06-24T02:53:27;15.30;99.90
4896;DHT22;2463;49.948;8.472;2023-06-24T02:55:55;15.30;99.90
4896;DHT22;2463;49.948;8.472;2023-06-24T02:58:24;15.30;99.90
4896;DHT22;2463;49.948;8.472;2023-06-24T03:01:00;15.30;99.90
4896;DHT22;2463;49.948;8.472;2023-06-24T03:03:27;15.20;99.90
4896;DHT22;2463;49.948;8.472;2023-06-24T03:05:55;15.20;99.90
4896;DHT22;2463;49.948;8.472;2023-06-24T03:08:25;15.20;99.90
4896;DHT22;2463;49.948;8.472;2023-06-24T03:10:55;15.10;99.90
4896;DHT22;2463;49.948;8.472;2023-06-24T03:13:22;15.10;99.90
4896;DHT22;2463;49.948;8.472;2023-06-24T03:15:49;15.00;99.90
4896;DHT22;2463;49.948;8.472;2023-06-24T03:18:17;15.00;99.90
4896;DHT22;2463;49.948;8.472;2023-06-24T03:20:44;15.10;99.90
4896;DHT22;2463;49.948;8.472;2023-06-24T03:23:11;15.20;99.90
4896;DHT22;2463;49.948;8.472;2023-06-24T03:25:37;15.10;99.90
4896;DHT22;2463;49.948;8.472;2023-06-24T03:28:04;15.10;99.90
4896;DHT22;2463;49.948;8.472;2023-06-24T03:30:33;15.00;99.90
4896;DHT22;2463;49.948;8.472;2023-06-24T03:33:00;15.10;99.90
4896;DHT22;2463;49.948;8.472;2023-06-24T03:35:27;15.00;99.90
4896;DHT22;2463;49.948;8.472;2023-06-24T03:37:54;15.10;99.90
4896;DHT22;2463;49.948;8.472;2023-06-24T03:40:20;15.00;99.90
4896;DHT22;2463;49.948;8.472;2023-06-24T03:42:47;15.00;99.90
4896;DHT22;2463;49.948;8.472;2023-06-24T03:45:14;15.10;99.90
4896;DHT22;2463;49.948;8.472;2023-06-24T03:47:41;15.20;99.90
4896;DHT22;2463;49.948;8.472;2023-06-24T03:50:08;15.20;99.90
4896;DHT22;2463;49.948;8.472;2023-06-24T03:52:35;15.20;99.90
4896;DHT22;2463;49.948;8.472;2023-06-24T03:55:02;15.20;99.90
4896;DHT22;2463;49.948;8.472;2023-06-24T03:57:30;15.20;99.90
4896;DHT22;2463;49.948;8.472;2023-06-24T03:59:57;15.20;99.90
4896;DHT22;2463;49.948;8.472;2023-06-24T04:02:24;15.30;99.90
4896;DHT22;2463;49.948;8.472;2023-06-24T04:04:51;15.30;99.90
4896;DHT22;2463;49.948;8.472;2023-06-24T04:07:18;15.30;99.90
4896;DHT22;2463;49.948;8.472;2023-06-24T04:09:55;15.40;99.90
4896;DHT22;2463;49.948;8.472;2023-06-24T04:12:23;15.40;99.90
4896;DHT22;2463;49.948;8.472;2023-06-24T04:14:50;15.40;99.90
4896;DHT22;2463;49.948;8.472;2023-06-24T04:17:16;15.50;99.90
4896;DHT22;2463;49.948;8.472;2023-06-24T04:19:43;15.50;99.90
4896;DHT22;2463;49.948;8.472;2023-06-24T04:22:11;15.50;99.90
4896;DHT22;2463;49.948;8.472;2023-06-24T04:24:37;15.60;99.90
4896;DHT22;2463;49.948;8.472;2023-06-24T04:27:07;15.60;99.90
4896;DHT22;2463;49.948;8.472;2023-06-24T04:29:34;15.70;99.90
4896;DHT22;2463;49.948;8.472;2023-06-24T04:32:01;15.80;99.90
4896;DHT22;2463;49.948;8.472;2023-06-24T04:34:27;15.90;99.90
4896;DHT22;2463;49.948;8.472;2023-06-24T04:36:54;15.90;99.90
4896;DHT22;2463;49.948;8.472;2023-06-24T04:39:21;15.90;99.90
4896;DHT22;2463;49.948;8.472;2023-06-24T04:41:48;16.00;99.90
4896;DHT22;2463;49.948;8.472;2023-06-24T04:44:15;16.00;99.90
4896;DHT22;2463;49.948;8.472;2023-06-24T04:46:41;16.10;99.90
4896;DHT22;2463;49.948;8.472;2023-06-24T04:49:08;16.20;99.90
4896;DHT22;2463;49.948;8.472;2023-06-24T04:51:35;16.20;99.90
4896;DHT22;2463;49.948;8.472;2023-06-24T04:54:03;16.30;99.90
4896;DHT22;2463;49.948;8.472;2023-06-24T04:56:30;16.40;99.90
4896;DHT22;2463;49.948;8.472;2023-06-24T04:58:56;16.40;99.90
4896;DHT22;2463;49.948;8.472;2023-06-24T05:01:23;16.50;99.90
4896;DHT22;2463;49.948;8.472;2023-06-24T05:03:50;16.60;99.90
4896;DHT22;2463;49.948;8.472;2023-06-24T05:06:17;16.70;99.90
4896;DHT22;2463;49.948;8.472;2023-06-24T05:08:44;16.80;99.90
4896;DHT22;2463;49.948;8.472;2023-06-24T05:11:10;16.90;99.90
4896;DHT22;2463;49.948;8.472;2023-06-24T05:13:37;17.00;99.90
4896;DHT22;2463;49.948;8.472;2023-06-24T05:16:04;17.10;99.90
4896;DHT22;2463;49.948;8.472;2023-06-24T05:18:31;17.30;99.90
4896;DHT22;2463;49.948;8.472;2023-06-24T05:20:58;17.40;99.90
4896;DHT22;2463;49.948;8.472;2023-06-24T05:23:24;17.50;99.90
4896;DHT22;2463;49.948;8.472;2023-06-24T05:25:51;17.60;99.90
4896;DHT22;2463;49.948;8.472;2023-06-24T05:28:18;17.70;99.90
4896;DHT22;2463;49.948;8.472;2023-06-24T05:30:45;17.80;99.90
4896;DHT22;2463;49.948;8.472;2023-06-24T05:33:12;17.90;99.90
4896;DHT22;2463;49.948;8.472;2023-06-24T05:35:39;17.90;99.90
4896;DHT22;2463;49.948;8.472;2023-06-24T05:38:08;18.10;99.90
4896;DHT22;2463;49.948;8.472;2023-06-24T05:40:35;18.20;99.90
4896;DHT22;2463;49.948;8.472;2023-06-24T05:43:01;18.30;99.90
4896;DHT22;2463;49.948;8.472;2023-06-24T05:45:29;18.40;99.90
4896;DHT22;2463;49.948;8.472;2023-06-24T05:47:56;18.50;99.90
4896;DHT22;2463;49.948;8.472;2023-06-24T05:50:22;18.60;99.90
4896;DHT22;2463;49.948;8.472;2023-06-24T05:52:49;18.80;99.90
4896;DHT22;2463;49.948;8.472;2023-06-24T05:55:16;18.80;99.90
4896;DHT22;2463;49.948;8.472;2023-06-24T05:57:43;19.00;99.90
4896;DHT22;2463;49.948;8.472;2023-06-24T06:00:10;19.10;99.90
4896;DHT22;2463;49.948;8.472;2023-06-24T06:02:37;19.30;99.90
4896;DHT22;2463;49.948;8.472;2023-06-24T06:05:04;19.40;99.90
4896;DHT22;2463;49.948;8.472;2023-06-24T06:07:30;19.60;99.90
4896;DHT22;2463;49.948;8.472;2023-06-24T06:09:57;19.70;99.90
4896;DHT22;2463;49.948;8.472;2023-06-24T06:12:24;19.90;99.90
4896;DHT22;2463;49.948;8.472;2023-06-24T06:14:51;20.10;99.90
4896;DHT22;2463;49.948;8.472;2023-06-24T06:17:17;20.30;99.90
4896;DHT22;2463;49.948;8.472;2023-06-24T06:19:44;20.50;99.90
4896;DHT22;2463;49.948;8.472;2023-06-24T06:22:15;20.60;99.90
4896;DHT22;2463;49.948;8.472;2023-06-24T06:24:42;20.90;99.90
4896;DHT22;2463;49.948;8.472;2023-06-24T06:27:13;21.10;99.90
4896;DHT22;2463;49.948;8.472;2023-06-24T06:29:40;21.40;99.90
4896;DHT22;2463;49.948;8.472;2023-06-24T06:32:07;21.70;99.90
4896;DHT22;2463;49.948;8.472;2023-06-24T06:34:34;21.90;99.90
4896;DHT22;2463;49.948;8.472;2023-06-24T06:37:02;22.40;99.90
4896;DHT22;2463;49.948;8.472;2023-06-24T06:39:28;23.20;99.90
4896;DHT22;2463;49.948;8.472;2023-06-24T06:41:55;24.40;99.90
4896;DHT22;2463;49.948;8.472;2023-06-24T06:44:22;25.60;99.90
4896;DHT22;2463;49.948;8.472;2023-06-24T06:46:49;27.00;99.90
4896;DHT22;2463;49.948;8.472;2023-06-24T06:49:15;28.20;99.90
4896;DHT22;2463;49.948;8.472;2023-06-24T06:51:42;29.40;99.90
4896;DHT22;2463;49.948;8.472;2023-06-24T06:54:09;30.50;99.90
4896;DHT22;2463;49.948;8.472;2023-06-24T06:56:35;31.50;99.90
4896;DHT22;2463;49.948;8.472;2023-06-24T06:59:02;32.40;99.90
4896;DHT22;2463;49.948;8.472;2023-06-24T07:01:29;33.20;99.90
4896;DHT22;2463;49.948;8.472;2023-06-24T07:03:55;33.70;99.90
4896;DHT22;2463;49.948;8.472;2023-06-24T07:06:22;34.40;98.70
4896;DHT22;2463;49.948;8.472;2023-06-24T07:08:49;34.30;95.60
4896;DHT22;2463;49.948;8.472;2023-06-24T07:11:16;34.00;93.40
4896;DHT22;2463;49.948;8.472;2023-06-24T07:13:42;33.70;92.40
4896;DHT22;2463;49.948;8.472;2023-06-24T07:16:11;33.40;93.60
4896;DHT22;2463;49.948;8.472;2023-06-24T07:18:38;33.20;95.20
4896;DHT22;2463;49.948;8.472;2023-06-24T07:21:04;32.90;93.00
4896;DHT22;2463;49.948;8.472;2023-06-24T07:23:31;32.60;93.90
4896;DHT22;2463;49.948;8.472;2023-06-24T07:25:58;32.30;94.90
4896;DHT22;2463;49.948;8.472;2023-06-24T07:28:28;32.00;94.00
4896;DHT22;2463;49.948;8.472;2023-06-24T07:30:54;31.70;95.90
4896;DHT22;2463;49.948;8.472;2023-06-24T07:33:21;31.30;96.30
4896;DHT22;2463;49.948;8.472;2023-06-24T07:35:48;31.10;95.00
4896;DHT22;2463;49.948;8.472;2023-06-24T07:38:15;30.90;95.90
4896;DHT22;2463;49.948;8.472;2023-06-24T07:40:41;30.70;95.90
4896;DHT22;2463;49.948;8.472;2023-06-24T07:43:08;30.60;97.80
4896;DHT22;2463;49.948;8.472;2023-06-24T07:45:35;30.60;97.10
4896;DHT22;2463;49.948;8.472;2023-06-24T07:48:02;30.40;96.00
4896;DHT22;2463;49.948;8.472;2023-06-24T07:50:29;30.20;96.80
4896;DHT22;2463;49.948;8.472;2023-06-24T07:52:56;30.10;98.00
4896;DHT22;2463;49.948;8.472;2023-06-24T07:55:22;30.00;96.20
4896;DHT22;2463;49.948;8.472;2023-06-24T07:57:49;30.00;96.40
4896;DHT22;2463;49.948;8.472;2023-06-24T08:00:16;29.90;95.90
4896;DHT22;2463;49.948;8.472;2023-06-24T08:02:43;29.70;95.80
4896;DHT22;2463;49.948;8.472;2023-06-24T08:05:10;29.70;94.90
4896;DHT22;2463;49.948;8.472;2023-06-24T08:07:37;29.50;96.10
4896;DHT22;2463;49.948;8.472;2023-06-24T08:10:04;29.60;98.00
4896;DHT22;2463;49.948;8.472;2023-06-24T08:12:31;29.70;96.40
4896;DHT22;2463;49.948;8.472;2023-06-24T08:14:58;29.80;97.00
4896;DHT22;2463;49.948;8.472;2023-06-24T08:17:25;29.80;95.50
4896;DHT22;2463;49.948;8.472;2023-06-24T08:19:52;29.80;97.20
4896;DHT22;2463;49.948;8.472;2023-06-24T08:22:18;29.90;97.40
4896;DHT22;2463;49.948;8.472;2023-06-24T08:24:45;30.00;95.10
4896;DHT22;2463;49.948;8.472;2023-06-24T08:27:12;30.10;95.40
4896;DHT22;2463;49.948;8.472;2023-06-24T08:29:39;30.30;96.80
4896;DHT22;2463;49.948;8.472;2023-06-24T08:32:06;30.40;95.40
4896;DHT22;2463;49.948;8.472;2023-06-24T08:34:33;30.30;95.80
4896;DHT22;2463;49.948;8.472;2023-06-24T08:37:00;30.20;95.90
4896;DHT22;2463;49.948;8.472;2023-06-24T08:39:27;30.30;96.00
4896;DHT22;2463;49.948;8.472;2023-06-24T08:41:54;30.50;96.70
4896;DHT22;2463;49.948;8.472;2023-06-24T08:44:21;30.70;95.80
4896;DHT22;2463;49.948;8.472;2023-06-24T08:46:48;30.90;96.10
4896;DHT22;2463;49.948;8.472;2023-06-24T08:49:21;30.90;92.50
4896;DHT22;2463;49.948;8.472;2023-06-24T08:52:03;30.80;94.80
4896;DHT22;2463;49.948;8.472;2023-06-24T08:54:34;30.70;93.80
4896;DHT22;2463;49.948;8.472;2023-06-24T08:57:02;30.70;93.90
4896;DHT22;2463;49.948;8.472;2023-06-24T08:59:32;30.70;94.00
4896;DHT22;2463;49.948;8.472;2023-06-24T09:02:00;30.80;94.00
4896;DHT22;2463;49.948;8.472;2023-06-24T09:04:27;31.10;93.70
4896;DHT22;2463;49.948;8.472;2023-06-24T09:06:53;31.40;94.40
4896;DHT22;2463;49.948;8.472;2023-06-24T09:09:21;31.40;92.20
4896;DHT22;2463;49.948;8.472;2023-06-24T09:11:55;31.40;93.40
4896;DHT22;2463;49.948;8.472;2023-06-24T09:14:24;31.50;92.90
4896;DHT22;2463;49.948;8.472;2023-06-24T09:16:58;31.70;92.50
4896;DHT22;2463;49.948;8.472;2023-06-24T09:19:28;31.60;93.20
4896;DHT22;2463;49.948;8.472;2023-06-24T09:21:57;31.90;92.70
4896;DHT22;2463;49.948;8.472;2023-06-24T09:24:29;31.90;92.00
4896;DHT22;2463;49.948;8.472;2023-06-24T09:26:57;32.00;92.70
4896;DHT22;2463;49.948;8.472;2023-06-24T09:29:28;32.20;91.10
4896;DHT22;2463;49.948;8.472;2023-06-24T09:31:56;32.30;91.70
4896;DHT22;2463;49.948;8.472;2023-06-24T09:34:25;32.50;90.20
4896;DHT22;2463;49.948;8.472;2023-06-24T09:36:54;32.50;89.50
4896;DHT22;2463;49.948;8.472;2023-06-24T09:39:20;32.50;89.50
4896;DHT22;2463;49.948;8.472;2023-06-24T09:42:00;32.50;89.20
4896;DHT22;2463;49.948;8.472;2023-06-24T09:44:29;32.60;89.00
4896;DHT22;2463;49.948;8.472;2023-06-24T09:46:57;32.60;88.80
4896;DHT22;2463;49.948;8.472;2023-06-24T09:49:23;32.90;87.00
4896;DHT22;2463;49.948;8.472;2023-06-24T09:51:55;33.10;88.00
4896;DHT22;2463;49.948;8.472;2023-06-24T09:54:28;33.40;89.40
4896;DHT22;2463;49.948;8.472;2023-06-24T09:57:02;33.70;85.10
4896;DHT22;2463;49.948;8.472;2023-06-24T09:59:30;33.90;88.90
4896;DHT22;2463;49.948;8.472;2023-06-24T10:02:00;34.10;85.00
4896;DHT22;2463;49.948;8.472;2023-06-24T10:04:27;34.30;87.50
4896;DHT22;2463;49.948;8.472;2023-06-24T10:06:54;34.50;84.30
4896;DHT22;2463;49.948;8.472;2023-06-24T10:09:21;34.60;82.10
4896;DHT22;2463;49.948;8.472;2023-06-24T10:11:48;34.50;79.40
4896;DHT22;2463;49.948;8.472;2023-06-24T10:14:15;34.30;79.50
4896;DHT22;2463;49.948;8.472;2023-06-24T10:16:44;34.20;83.60
4896;DHT22;2463;49.948;8.472;2023-06-24T10:19:19;34.30;81.00
4896;DHT22;2463;49.948;8.472;2023-06-24T10:24:35;34.30;77.70
4896;DHT22;2463;49.948;8.472;2023-06-24T10:27:04;34.30;76.50
4896;DHT22;2463;49.948;8.472;2023-06-24T10:29:39;34.30;79.00
4896;DHT22;2463;49.948;8.472;2023-06-24T10:32:06;34.40;79.50
4896;DHT22;2463;49.948;8.472;2023-06-24T10:37:05;34.50;74.30
4896;DHT22;2463;49.948;8.472;2023-06-24T10:44:53;34.40;75.00
4896;DHT22;2463;49.948;8.472;2023-06-24T10:47:24;34.50;73.10
4896;DHT22;2463;49.948;8.472;2023-06-24T10:49:51;34.70;79.00
4896;DHT22;2463;49.948;8.472;2023-06-24T10:52:19;35.00;75.30
4896;DHT22;2463;49.948;8.472;2023-06-24T10:54:49;35.20;74.40
4896;DHT22;2463;49.948;8.472;2023-06-24T10:57:20;35.30;71.20
4896;DHT22;2463;49.948;8.472;2023-06-24T10:59:50;35.40;71.90
4896;DHT22;2463;49.948;8.472;2023-06-24T11:02:18;35.60;71.40
4896;DHT22;2463;49.948;8.472;2023-06-24T11:04:45;35.70;71.50
4896;DHT22;2463;49.948;8.472;2023-06-24T11:07:13;35.90;73.00
4896;DHT22;2463;49.948;8.472;2023-06-24T11:09:47;36.10;71.90
4896;DHT22;2463;49.948;8.472;2023-06-24T11:12:14;36.20;72.00
4896;DHT22;2463;49.948;8.472;2023-06-24T11:14:41;36.20;67.50
4896;DHT22;2463;49.948;8.472;2023-06-24T11:17:09;36.30;72.50
4896;DHT22;2463;49.948;8.472;2023-06-24T11:19:36;36.40;70.90
4896;DHT22;2463;49.948;8.472;2023-06-24T11:22:07;36.70;69.20
4896;DHT22;2463;49.948;8.472;2023-06-24T11:24:34;36.80;65.90
4896;DHT22;2463;49.948;8.472;2023-06-24T11:27:02;36.90;63.20
4896;DHT22;2463;49.948;8.472;2023-06-24T11:29:32;36.90;63.60
4896;DHT22;2463;49.948;8.472;2023-06-24T11:32:00;37.00;63.00
4896;DHT22;2463;49.948;8.472;2023-06-24T11:34:27;37.10;64.20
4896;DHT22;2463;49.948;8.472;2023-06-24T11:36:53;37.10;63.70
4896;DHT22;2463;49.948;8.472;2023-06-24T11:39:24;37.20;65.20
4896;DHT22;2463;49.948;8.472;2023-06-24T11:41:52;37.20;68.40
4896;DHT22;2463;49.948;8.472;2023-06-24T11:44:20;37.20;66.80
4896;DHT22;2463;49.948;8.472;2023-06-24T11:46:47;37.20;65.10
4896;DHT22;2463;49.948;8.472;2023-06-24T11:49:14;37.20;64.20
4896;DHT22;2463;49.948;8.472;2023-06-24T11:51:49;37.20;66.10
4896;DHT22;2463;49.948;8.472;2023-06-24T11:54:18;37.30;65.80
4896;DHT22;2463;49.948;8.472;2023-06-24T11:56:53;37.30;60.00
4896;DHT22;2463;49.948;8.472;2023-06-24T11:59:23;37.00;61.80
4896;DHT22;2463;49.948;8.472;2023-06-24T12:01:53;36.60;59.30
4896;DHT22;2463;49.948;8.472;2023-06-24T12:04:21;36.50;62.10
4896;DHT22;2463;49.948;8.472;2023-06-24T12:06:53;36.50;62.70
4896;DHT22;2463;49.948;8.472;2023-06-24T12:09:20;36.60;66.10
4896;DHT22;2463;49.948;8.472;2023-06-24T12:11:47;36.90;65.50
4896;DHT22;2463;49.948;8.472;2023-06-24T12:14:14;36.80;59.00
4896;DHT22;2463;49.948;8.472;2023-06-24T12:16:40;36.70;62.20
4896;DHT22;2463;49.948;8.472;2023-06-24T12:19:07;36.70;59.40
4896;DHT22;2463;49.948;8.472;2023-06-24T12:21:35;36.30;58.90
4896;DHT22;2463;49.948;8.472;2023-06-24T12:24:02;35.90;61.40
4896;DHT22;2463;49.948;8.472;2023-06-24T12:26:28;35.50;59.60
4896;DHT22;2463;49.948;8.472;2023-06-24T12:28:55;35.40;60.30
4896;DHT22;2463;49.948;8.472;2023-06-24T12:31:25;35.20;60.00
4896;DHT22;2463;49.948;8.472;2023-06-24T12:33:51;35.30;62.20
4896;DHT22;2463;49.948;8.472;2023-06-24T12:36:19;35.50;61.70
4896;DHT22;2463;49.948;8.472;2023-06-24T12:38:46;35.60;57.50
4896;DHT22;2463;49.948;8.472;2023-06-24T12:41:13;35.50;57.30
4896;DHT22;2463;49.948;8.472;2023-06-24T12:43:40;35.40;58.50
4896;DHT22;2463;49.948;8.472;2023-06-24T12:46:07;35.20;57.20
4896;DHT22;2463;49.948;8.472;2023-06-24T12:48:33;35.10;56.60
4896;DHT22;2463;49.948;8.472;2023-06-24T12:51:00;35.10;60.40
4896;DHT22;2463;49.948;8.472;2023-06-24T12:53:27;35.30;63.10
4896;DHT22;2463;49.948;8.472;2023-06-24T12:55:53;35.60;63.90
4896;DHT22;2463;49.948;8.472;2023-06-24T12:58:23;35.90;63.70
4896;DHT22;2463;49.948;8.472;2023-06-24T13:00:50;36.20;60.80
4896;DHT22;2463;49.948;8.472;2023-06-24T13:03:16;36.30;59.70
4896;DHT22;2463;49.948;8.472;2023-06-24T13:05:43;36.40;62.60
4896;DHT22;2463;49.948;8.472;2023-06-24T13:08:10;36.60;62.20
4896;DHT22;2463;49.948;8.472;2023-06-24T13:10:37;36.60;55.40
4896;DHT22;2463;49.948;8.472;2023-06-24T13:13:05;36.40;55.40
4896;DHT22;2463;49.948;8.472;2023-06-24T13:15:32;36.20;57.30
4896;DHT22;2463;49.948;8.472;2023-06-24T13:17:59;36.30;57.20
4896;DHT22;2463;49.948;8.472;2023-06-24T13:20:25;36.40;56.90
4896;DHT22;2463;49.948;8.472;2023-06-24T13:22:52;36.70;57.80
4896;DHT22;2463;49.948;8.472;2023-06-24T13:25:19;36.60;59.60
4896;DHT22;2463;49.948;8.472;2023-06-24T13:27:45;36.70;58.40
4896;DHT22;2463;49.948;8.472;2023-06-24T13:30:13;36.80;60.20
4896;DHT22;2463;49.948;8.472;2023-06-24T13:32:42;36.80;58.10
4896;DHT22;2463;49.948;8.472;2023-06-24T13:35:09;36.80;57.50
4896;DHT22;2463;49.948;8.472;2023-06-24T13:37:36;37.00;57.80
4896;DHT22;2463;49.948;8.472;2023-06-24T13:40:03;37.00;57.60
4896;DHT22;2463;49.948;8.472;2023-06-24T13:42:30;37.10;57.20
4896;DHT22;2463;49.948;8.472;2023-06-24T13:44:56;37.20;56.60
4896;DHT22;2463;49.948;8.472;2023-06-24T13:47:23;37.20;56.40
4896;DHT22;2463;49.948;8.472;2023-06-24T13:49:50;37.10;56.20
4896;DHT22;2463;49.948;8.472;2023-06-24T13:52:17;37.00;57.00
4896;DHT22;2463;49.948;8.472;2023-06-24T13:54:43;36.90;57.40
4896;DHT22;2463;49.948;8.472;2023-06-24T13:57:10;36.80;60.00
4896;DHT22;2463;49.948;8.472;2023-06-24T13:59:37;36.80;60.70
4896;DHT22;2463;49.948;8.472;2023-06-24T14:02:04;36.80;60.00
4896;DHT22;2463;49.948;8.472;2023-06-24T14:04:30;36.80;59.30
4896;DHT22;2463;49.948;8.472;2023-06-24T14:06:57;36.70;59.80
4896;DHT22;2463;49.948;8.472;2023-06-24T14:09:24;36.60;61.20
4896;DHT22;2463;49.948;8.472;2023-06-24T14:11:51;36.60;61.20
4896;DHT22;2463;49.948;8.472;2023-06-24T14:14:18;36.50;60.20
4896;DHT22;2463;49.948;8.472;2023-06-24T14:16:45;36.40;60.90
4896;DHT22;2463;49.948;8.472;2023-06-24T14:19:12;36.40;61.60
4896;DHT22;2463;49.948;8.472;2023-06-24T14:21:39;36.50;62.10
4896;DHT22;2463;49.948;8.472;2023-06-24T14:24:06;36.40;63.70
4896;DHT22;2463;49.948;8.472;2023-06-24T14:26:42;36.30;61.30
4896;DHT22;2463;49.948;8.472;2023-06-24T14:29:09;36.30;61.90
4896;DHT22;2463;49.948;8.472;2023-06-24T14:31:35;36.10;60.90
4896;DHT22;2463;49.948;8.472;2023-06-24T14:34:02;35.90;63.10
4896;DHT22;2463;49.948;8.472;2023-06-24T14:39:04;35.30;62.80
4896;DHT22;2463;49.948;8.472;2023-06-24T14:41:30;34.90;63.10
4896;DHT22;2463;49.948;8.472;2023-06-24T14:43:57;34.30;61.00
4896;DHT22;2463;49.948;8.472;2023-06-24T14:46:24;33.80;59.90
4896;DHT22;2463;49.948;8.472;2023-06-24T14:48:50;33.50;63.40
4896;DHT22;2463;49.948;8.472;2023-06-24T14:51:17;33.20;64.50
4896;DHT22;2463;49.948;8.472;2023-06-24T14:53:44;33.00;66.40
4896;DHT22;2463;49.948;8.472;2023-06-24T14:56:11;33.00;66.30
4896;DHT22;2463;49.948;8.472;2023-06-24T14:58:37;33.10;67.50
4896;DHT22;2463;49.948;8.472;2023-06-24T15:01:04;33.20;63.50
4896;DHT22;2463;49.948;8.472;2023-06-24T15:03:31;33.20;59.50
4896;DHT22;2463;49.948;8.472;2023-06-24T15:05:57;33.20;63.30
4896;DHT22;2463;49.948;8.472;2023-06-24T15:08:24;33.10;61.80
4896;DHT22;2463;49.948;8.472;2023-06-24T15:10:53;33.00;63.00
4896;DHT22;2463;49.948;8.472;2023-06-24T15:13:19;33.00;61.20
4896;DHT22;2463;49.948;8.472;2023-06-24T15:15:46;32.80;65.50
4896;DHT22;2463;49.948;8.472;2023-06-24T15:18:13;32.70;64.40
4896;DHT22;2463;49.948;8.472;2023-06-24T15:20:41;32.80;65.20
4896;DHT22;2463;49.948;8.472;2023-06-24T15:23:08;32.60;67.50
4896;DHT22;2463;49.948;8.472;2023-06-24T15:25:34;32.50;67.00
4896;DHT22;2463;49.948;8.472;2023-06-24T15:28:01;32.60;69.30
4896;DHT22;2463;49.948;8.472;2023-06-24T15:30:28;32.60;68.50
4896;DHT22;2463;49.948;8.472;2023-06-24T15:32:55;32.50;67.00
4896;DHT22;2463;49.948;8.472;2023-06-24T15:35:22;32.40;67.20
4896;DHT22;2463;49.948;8.472;2023-06-24T15:37:48;32.20;64.60
4896;DHT22;2463;49.948;8.472;2023-06-24T15:40:15;31.90;64.90
4896;DHT22;2463;49.948;8.472;2023-06-24T15:42:42;31.90;68.30
4896;DHT22;2463;49.948;8.472;2023-06-24T15:45:09;31.90;69.10
4896;DHT22;2463;49.948;8.472;2023-06-24T15:47:36;32.00;70.90
4896;DHT22;2463;49.948;8.472;2023-06-24T15:50:05;32.00;68.30
4896;DHT22;2463;49.948;8.472;2023-06-24T15:52:31;32.10;65.30
4896;DHT22;2463;49.948;8.472;2023-06-24T15:54:58;32.10;66.70
4896;DHT22;2463;49.948;8.472;2023-06-24T15:57:25;32.00;69.60
4896;DHT22;2463;49.948;8.472;2023-06-24T15:59:51;31.90;66.60
4896;DHT22;2463;49.948;8.472;2023-06-24T16:02:18;31.90;65.70
4896;DHT22;2463;49.948;8.472;2023-06-24T16:04:45;31.90;66.60
4896;DHT22;2463;49.948;8.472;2023-06-24T16:07:12;32.00;69.10
4896;DHT22;2463;49.948;8.472;2023-06-24T16:09:39;32.00;64.20
4896;DHT22;2463;49.948;8.472;2023-06-24T16:12:05;32.00;66.90
4896;DHT22;2463;49.948;8.472;2023-06-24T16:14:32;32.00;68.40
4896;DHT22;2463;49.948;8.472;2023-06-24T16:16:59;31.90;64.60
4896;DHT22;2463;49.948;8.472;2023-06-24T16:19:26;31.90;64.00
4896;DHT22;2463;49.948;8.472;2023-06-24T16:21:54;31.90;62.50
4896;DHT22;2463;49.948;8.472;2023-06-24T16:24:21;31.80;60.80
4896;DHT22;2463;49.948;8.472;2023-06-24T16:26:48;31.80;62.70